sensor_id;sensor_type;location;lat;lon;timestamp;pressure;altitude;pressure_sealevel;temperature;humidity
75650;BME280;64245;51.282;22.494;2024-01-11T00:01:13;99866.63;;;-8.56;79.90
75650;BME280;64245;51.282;22.494;2024-01-11T00:03:39;99845.00;;;-8.75;83.12
75650;BME280;64245;51.282;22.494;2024-01-11T00:06:05;99832.84;;;-8.78;81.96
75650;BME280;64245;51.282;22.494;2024-01-11T00:08:31;99842.34;;;-8.67;83.37
75650;BME280;64245;51.282;22.494;2024-01-11T00:10:57;99809.38;;;-8.81;82.59
75650;BME280;64245;51.282;22.494;2024-01-11T00:13:22;99825.75;;;-8.63;82.86
75650;BME280;64245;51.282;22.494;2024-01-11T00:15:48;99824.00;;;-8.61;82.25
75650;BME280;64245;51.282;22.494;2024-01-11T00:18:14;99822.19;;;-8.50;80.70
75650;BME280;64245;51.282;22.494;2024-01-11T00:20:39;99821.31;;;-8.49;82.60
75650;BME280;64245;51.282;22.494;2024-01-11T00:23:05;99803.94;;;-8.55;80.64
75650;BME280;64245;51.282;22.494;2024-01-11T00:25:31;99809.88;;;-8.38;79.78
75650;BME280;64245;51.282;22.494;2024-01-11T00:27:56;99808.13;;;-8.37;80.69
75650;BME280;64245;51.282;22.494;2024-01-11T00:30:22;99811.66;;;-8.46;81.97
75650;BME280;64245;51.282;22.494;2024-01-11T00:32:48;99779.63;;;-8.63;82.29
75650;BME280;64245;51.282;22.494;2024-01-11T00:35:14;99787.38;;;-8.49;82.48
75650;BME280;64245;51.282;22.494;2024-01-11T00:37:40;99762.94;;;-8.45;81.70
75650;BME280;64245;51.282;22.494;2024-01-11T00:40:07;99784.50;;;-8.28;80.75
75650;BME280;64245;51.282;22.494;2024-01-11T00:42:32;99783.50;;;-8.18;80.13
75650;BME280;64245;51.282;22.494;2024-01-11T00:45:00;99775.00;;;-8.33;82.51
75650;BME280;64245;51.282;22.494;2024-01-11T00:47:26;99779.97;;;-8.11;80.44
75650;BME280;64245;51.282;22.494;2024-01-11T00:49:52;99775.53;;;-8.07;80.29
75650;BME280;64245;51.282;22.494;2024-01-11T00:52:17;99778.19;;;-8.09;81.06
75650;BME280;64245;51.282;22.494;2024-01-11T00:54:43;99782.56;;;-8.11;81.42
75650;BME280;64245;51.282;22.494;2024-01-11T00:57:09;99763.47;;;-8.16;82.11
75650;BME280;64245;51.282;22.494;2024-01-11T00:59:34;99760.03;;;-8.21;80.96
75650;BME280;64245;51.282;22.494;2024-01-11T01:02:00;99761.66;;;-8.11;82.06
75650;BME280;64245;51.282;22.494;2024-01-11T01:04:26;99731.91;;;-8.01;81.01
75650;BME280;64245;51.282;22.494;2024-01-11T01:06:51;99736.25;;;-7.99;81.88
75650;BME280;64245;51.282;22.494;2024-01-11T01:09:17;99737.09;;;-7.97;81.88
75650;BME280;64245;51.282;22.494;2024-01-11T01:11:43;99735.56;;;-8.12;83.34
75650;BME280;64245;51.282;22.494;2024-01-11T01:14:08;99726.69;;;-8.02;81.72
75650;BME280;64245;51.282;22.494;2024-01-11T01:16:34;99724.09;;;-8.02;82.61
75650;BME280;64245;51.282;22.494;2024-01-11T01:19:00;99726.66;;;-7.97;82.21
75650;BME280;64245;51.282;22.494;2024-01-11T01:21:25;99722.13;;;-7.86;81.50
75650;BME280;64245;51.282;22.494;2024-01-11T01:23:51;99726.38;;;-7.76;81.32
75650;BME280;64245;51.282;22.494;2024-01-11T01:26:17;99733.22;;;-7.69;81.16
75650;BME280;64245;51.282;22.494;2024-01-11T01:28:42;99737.69;;;-7.74;80.38
75650;BME280;64245;51.282;22.494;2024-01-11T01:31:09;99734.97;;;-7.68;81.12
75650;BME280;64245;51.282;22.494;2024-01-11T01:33:35;99743.59;;;-7.61;80.72
75650;BME280;64245;51.282;22.494;2024-01-11T01:36:01;99742.81;;;-7.68;82.15
75650;BME280;64245;51.282;22.494;2024-01-11T01:38:26;99736.66;;;-7.64;81.77
75650;BME280;64245;51.282;22.494;2024-01-11T01:40:52;99724.47;;;-7.67;82.90
75650;BME280;64245;51.282;22.494;2024-01-11T01:43:18;99715.94;;;-7.78;83.06
75650;BME280;64245;51.282;22.494;2024-01-11T01:45:43;99727.06;;;-7.63;83.06
75650;BME280;64245;51.282;22.494;2024-01-11T01:48:09;99726.13;;;-7.59;83.47
75650;BME280;64245;51.282;22.494;2024-01-11T01:50:35;99719.16;;;-7.59;83.89
75650;BME280;64245;51.282;22.494;2024-01-11T01:53:01;99721.56;;;-7.45;83.10
75650;BME280;64245;51.282;22.494;2024-01-11T01:55:28;99725.88;;;-7.41;83.13
75650;BME280;64245;51.282;22.494;2024-01-11T01:57:58;99732.78;;;-7.37;83.43
75650;BME280;64245;51.282;22.494;2024-01-11T02:00:25;99725.63;;;-7.26;83.11
75650;BME280;64245;51.282;22.494;2024-01-11T02:02:52;99721.97;;;-7.14;82.64
75650;BME280;64245;51.282;22.494;2024-01-11T02:05:18;99735.06;;;-7.14;85.34
75650;BME280;64245;51.282;22.494;2024-01-11T02:07:44;99735.78;;;-7.06;83.98
75650;BME280;64245;51.282;22.494;2024-01-11T02:10:10;99691.53;;;-7.20;85.88
75650;BME280;64245;51.282;22.494;2024-01-11T02:12:36;99708.44;;;-6.90;85.06
75650;BME280;64245;51.282;22.494;2024-01-11T02:15:05;99693.41;;;-6.77;84.02
75650;BME280;64245;51.282;22.494;2024-01-11T02:17:31;99685.59;;;-6.79;83.57
75650;BME280;64245;51.282;22.494;2024-01-11T02:19:57;99672.41;;;-6.74;85.50
75650;BME280;64245;51.282;22.494;2024-01-11T02:22:34;99687.06;;;-6.66;84.46
75650;BME280;64245;51.282;22.494;2024-01-11T02:25:01;99681.19;;;-6.77;85.30
75650;BME280;64245;51.282;22.494;2024-01-11T02:27:27;99701.75;;;-6.55;83.64
75650;BME280;64245;51.282;22.494;2024-01-11T02:29:53;99721.53;;;-6.41;83.94
75650;BME280;64245;51.282;22.494;2024-01-11T02:32:19;99716.22;;;-6.36;84.47
75650;BME280;64245;51.282;22.494;2024-01-11T02:34:46;99701.47;;;-6.42;83.73
75650;BME280;64245;51.282;22.494;2024-01-11T02:37:12;99707.41;;;-6.34;83.46
75650;BME280;64245;51.282;22.494;2024-01-11T02:39:38;99692.59;;;-6.35;84.50
75650;BME280;64245;51.282;22.494;2024-01-11T02:42:04;99699.59;;;-6.35;84.01
75650;BME280;64245;51.282;22.494;2024-01-11T02:44:29;99687.47;;;-6.41;85.09
75650;BME280;64245;51.282;22.494;2024-01-11T02:46:55;99669.91;;;-6.36;84.13
75650;BME280;64245;51.282;22.494;2024-01-11T02:49:20;99662.97;;;-6.38;85.68
75650;BME280;64245;51.282;22.494;2024-01-11T02:51:46;99645.50;;;-6.38;85.06
75650;BME280;64245;51.282;22.494;2024-01-11T02:54:12;99645.53;;;-6.39;84.65
75650;BME280;64245;51.282;22.494;2024-01-11T02:56:38;99638.53;;;-6.39;86.13
75650;BME280;64245;51.282;22.494;2024-01-11T02:59:03;99630.69;;;-6.39;85.39
75650;BME280;64245;51.282;22.494;2024-01-11T03:01:29;99619.28;;;-6.36;85.46
75650;BME280;64245;51.282;22.494;2024-01-11T03:03:56;99599.44;;;-6.49;86.42
75650;BME280;64245;51.282;22.494;2024-01-11T03:06:22;99601.31;;;-6.54;86.74
75650;BME280;64245;51.282;22.494;2024-01-11T03:08:48;99601.31;;;-6.54;86.28
75650;BME280;64245;51.282;22.494;2024-01-11T03:11:14;99615.16;;;-6.49;88.09
75650;BME280;64245;51.282;22.494;2024-01-11T03:13:41;99616.84;;;-6.47;86.74
75650;BME280;64245;51.282;22.494;2024-01-11T03:16:07;99601.94;;;-6.43;87.12
75650;BME280;64245;51.282;22.494;2024-01-11T03:18:33;99590.72;;;-6.50;86.63
75650;BME280;64245;51.282;22.494;2024-01-11T03:20:59;99587.06;;;-6.41;87.02
75650;BME280;64245;51.282;22.494;2024-01-11T03:23:24;99588.09;;;-6.50;87.42
75650;BME280;64245;51.282;22.494;2024-01-11T03:25:50;99574.25;;;-6.55;87.83
75650;BME280;64245;51.282;22.494;2024-01-11T03:28:16;99583.78;;;-6.52;87.69
75650;BME280;64245;51.282;22.494;2024-01-11T03:30:42;99576.09;;;-6.60;88.79
75650;BME280;64245;51.282;22.494;2024-01-11T03:33:08;99576.97;;;-6.59;89.83
75650;BME280;64245;51.282;22.494;2024-01-11T03:35:34;99563.97;;;-6.64;89.17
75650;BME280;64245;51.282;22.494;2024-01-11T03:37:59;99565.63;;;-6.60;89.37
75650;BME280;64245;51.282;22.494;2024-01-11T03:40:25;99561.25;;;-6.59;89.85
75650;BME280;64245;51.282;22.494;2024-01-11T03:42:52;99585.72;;;-6.60;90.20
75650;BME280;64245;51.282;22.494;2024-01-11T03:45:18;99571.03;;;-6.69;89.60
75650;BME280;64245;51.282;22.494;2024-01-11T03:47:44;99565.81;;;-6.71;89.76
75650;BME280;64245;51.282;22.494;2024-01-11T03:50:10;99569.25;;;-6.67;89.22
75650;BME280;64245;51.282;22.494;2024-01-11T03:52:36;99551.88;;;-6.71;88.70
75650;BME280;64245;51.282;22.494;2024-01-11T03:55:02;99547.78;;;-6.84;89.53
75650;BME280;64245;51.282;22.494;2024-01-11T03:57:28;99561.72;;;-6.82;91.21
75650;BME280;64245;51.282;22.494;2024-01-11T03:59:54;99569.78;;;-6.93;89.54
75650;BME280;64245;51.282;22.494;2024-01-11T04:02:19;99559.22;;;-6.88;89.73
75650;BME280;64245;51.282;22.494;2024-01-11T04:04:45;99563.69;;;-6.93;89.09
75650;BME280;64245;51.282;22.494;2024-01-11T04:07:11;99558.47;;;-6.93;89.56
75650;BME280;64245;51.282;22.494;2024-01-11T04:09:40;99530.94;;;-7.14;90.37
75650;BME280;64245;51.282;22.494;2024-01-11T04:12:06;99529.31;;;-7.21;90.62
75650;BME280;64245;51.282;22.494;2024-01-11T04:14:32;99550.00;;;-7.08;90.11
75650;BME280;64245;51.282;22.494;2024-01-11T04:16:57;99556.03;;;-7.04;90.52
75650;BME280;64245;51.282;22.494;2024-01-11T04:19:23;99550.00;;;-7.08;90.24
75650;BME280;64245;51.282;22.494;2024-01-11T04:21:49;99550.78;;;-7.03;89.97
75650;BME280;64245;51.282;22.494;2024-01-11T04:24:14;99534.47;;;-7.17;91.28
75650;BME280;64245;51.282;22.494;2024-01-11T04:26:40;99543.25;;;-7.19;91.49
75650;BME280;64245;51.282;22.494;2024-01-11T04:29:06;99535.50;;;-7.25;91.16
75650;BME280;64245;51.282;22.494;2024-01-11T04:31:31;99528.69;;;-7.34;92.43
75650;BME280;64245;51.282;22.494;2024-01-11T04:33:57;99507.91;;;-7.42;92.32
75650;BME280;64245;51.282;22.494;2024-01-11T04:36:23;99520.13;;;-7.42;93.35
75650;BME280;64245;51.282;22.494;2024-01-11T04:38:49;99522.72;;;-7.41;91.90
75650;BME280;64245;51.282;22.494;2024-01-11T04:41:15;99525.25;;;-7.36;92.35
75650;BME280;64245;51.282;22.494;2024-01-11T04:43:42;99525.13;;;-7.30;91.94
75650;BME280;64245;51.282;22.494;2024-01-11T04:46:22;99518.41;;;-7.43;92.33
75650;BME280;64245;51.282;22.494;2024-01-11T04:48:49;99522.47;;;-7.28;93.14
75650;BME280;64245;51.282;22.494;2024-01-11T04:51:16;99534.78;;;-7.32;92.59
75650;BME280;64245;51.282;22.494;2024-01-11T04:53:43;99534.69;;;-7.29;93.01
75650;BME280;64245;51.282;22.494;2024-01-11T04:56:12;99503.50;;;-7.40;92.86
75650;BME280;64245;51.282;22.494;2024-01-11T04:58:39;99533.72;;;-7.23;93.41
75650;BME280;64245;51.282;22.494;2024-01-11T05:01:05;99527.03;;;-7.38;95.93
75650;BME280;64245;51.282;22.494;2024-01-11T05:03:32;99522.47;;;-7.28;95.38
75650;BME280;64245;51.282;22.494;2024-01-11T05:05:58;99513.72;;;-7.27;96.04
75650;BME280;64245;51.282;22.494;2024-01-11T05:08:25;99511.06;;;-7.24;95.33
75650;BME280;64245;51.282;22.494;2024-01-11T05:10:51;99510.19;;;-7.25;95.77
75650;BME280;64245;51.282;22.494;2024-01-11T05:13:17;99509.19;;;-7.16;94.88
75650;BME280;64245;51.282;22.494;2024-01-11T05:15:43;99502.28;;;-7.20;95.20
75650;BME280;64245;51.282;22.494;2024-01-11T05:18:09;99519.69;;;-7.19;96.79
75650;BME280;64245;51.282;22.494;2024-01-11T05:20:36;99515.22;;;-7.13;95.79
75650;BME280;64245;51.282;22.494;2024-01-11T05:23:02;99510.91;;;-7.15;96.62
75650;BME280;64245;51.282;22.494;2024-01-11T05:25:29;99503.03;;;-7.14;97.18
75650;BME280;64245;51.282;22.494;2024-01-11T05:28:00;99508.94;;;-7.06;96.59
75650;BME280;64245;51.282;22.494;2024-01-11T05:30:25;99509.69;;;-6.99;97.46
75650;BME280;64245;51.282;22.494;2024-01-11T05:32:52;99512.88;;;-6.83;96.59
75650;BME280;64245;51.282;22.494;2024-01-11T05:35:17;99523.44;;;-6.89;97.07
75650;BME280;64245;51.282;22.494;2024-01-11T05:37:43;99518.00;;;-6.79;97.91
75650;BME280;64245;51.282;22.494;2024-01-11T05:40:09;99517.16;;;-6.79;97.59
75650;BME280;64245;51.282;22.494;2024-01-11T05:42:34;99517.59;;;-6.59;97.63
75650;BME280;64245;51.282;22.494;2024-01-11T05:45:00;99525.72;;;-6.73;98.62
75650;BME280;64245;51.282;22.494;2024-01-11T05:47:26;99526.41;;;-6.63;99.06
75650;BME280;64245;51.282;22.494;2024-01-11T05:49:52;99509.50;;;-6.50;99.60
75650;BME280;64245;51.282;22.494;2024-01-11T05:52:18;99526.59;;;-6.32;99.59
75650;BME280;64245;51.282;22.494;2024-01-11T05:54:44;99522.75;;;-6.16;99.78
75650;BME280;64245;51.282;22.494;2024-01-11T05:57:09;99500.69;;;-6.07;99.07
75650;BME280;64245;51.282;22.494;2024-01-11T05:59:35;99500.50;;;-6.00;100.00
75650;BME280;64245;51.282;22.494;2024-01-11T06:02:01;99495.91;;;-5.92;99.19
75650;BME280;64245;51.282;22.494;2024-01-11T06:04:27;99502.03;;;-5.91;99.56
75650;BME280;64245;51.282;22.494;2024-01-11T06:06:53;99509.88;;;-5.91;100.00
75650;BME280;64245;51.282;22.494;2024-01-11T06:09:18;99488.94;;;-5.93;100.00
75650;BME280;64245;51.282;22.494;2024-01-11T06:11:44;99486.28;;;-5.91;100.00
75650;BME280;64245;51.282;22.494;2024-01-11T06:14:09;99479.88;;;-5.79;99.46
75650;BME280;64245;51.282;22.494;2024-01-11T06:16:35;99479.72;;;-5.75;99.30
75650;BME280;64245;51.282;22.494;2024-01-11T06:19:01;99476.28;;;-5.77;98.60
75650;BME280;64245;51.282;22.494;2024-01-11T06:21:27;99469.16;;;-5.72;98.48
75650;BME280;64245;51.282;22.494;2024-01-11T06:23:53;99473.63;;;-5.75;98.50
75650;BME280;64245;51.282;22.494;2024-01-11T06:26:19;99450.41;;;-5.89;99.63
75650;BME280;64245;51.282;22.494;2024-01-11T06:28:45;99459.81;;;-5.82;99.62
75650;BME280;64245;51.282;22.494;2024-01-11T06:31:11;99442.31;;;-5.81;100.00
75650;BME280;64245;51.282;22.494;2024-01-11T06:33:37;99441.53;;;-5.85;99.16
75650;BME280;64245;51.282;22.494;2024-01-11T06:36:05;99446.03;;;-5.88;100.00
75650;BME280;64245;51.282;22.494;2024-01-11T06:38:31;99423.47;;;-5.96;99.89
75650;BME280;64245;51.282;22.494;2024-01-11T06:40:57;99435.63;;;-5.92;100.00
75650;BME280;64245;51.282;22.494;2024-01-11T06:43:23;99435.63;;;-5.92;100.00
75650;BME280;64245;51.282;22.494;2024-01-11T06:45:48;99440.00;;;-5.92;100.00
75650;BME280;64245;51.282;22.494;2024-01-11T06:48:14;99445.00;;;-5.83;100.00
75650;BME280;64245;51.282;22.494;2024-01-11T06:50:40;99441.25;;;-5.74;100.00
75650;BME280;64245;51.282;22.494;2024-01-11T06:53:05;99440.38;;;-5.75;100.00
75650;BME280;64245;51.282;22.494;2024-01-11T06:55:31;99426.38;;;-5.74;100.00
75650;BME280;64245;51.282;22.494;2024-01-11T06:57:57;99435.06;;;-5.72;100.00
75650;BME280;64245;51.282;22.494;2024-01-11T07:00:23;99428.91;;;-5.71;100.00
75650;BME280;64245;51.282;22.494;2024-01-11T07:02:48;99434.13;;;-5.69;100.00
75650;BME280;64245;51.282;22.494;2024-01-11T07:05:14;99428.03;;;-5.70;100.00
75650;BME280;64245;51.282;22.494;2024-01-11T07:07:40;99424.47;;;-5.67;100.00
75650;BME280;64245;51.282;22.494;2024-01-11T07:10:06;99436.63;;;-5.65;100.00
75650;BME280;64245;51.282;22.494;2024-01-11T07:12:34;99433.94;;;-5.62;100.00
75650;BME280;64245;51.282;22.494;2024-01-11T07:15:00;99422.63;;;-5.64;100.00
75650;BME280;64245;51.282;22.494;2024-01-11T07:17:25;99419.06;;;-5.61;100.00
75650;BME280;64245;51.282;22.494;2024-01-11T07:19:51;99406.22;;;-5.72;100.00
75650;BME280;64245;51.282;22.494;2024-01-11T07:22:16;99412.22;;;-5.67;100.00
75650;BME280;64245;51.282;22.494;2024-01-11T07:24:42;99415.63;;;-5.63;100.00
75650;BME280;64245;51.282;22.494;2024-01-11T07:27:08;99411.88;;;-5.54;100.00
75650;BME280;64245;51.282;22.494;2024-01-11T07:29:34;99408.25;;;-5.50;100.00
75650;BME280;64245;51.282;22.494;2024-01-11T07:32:00;99403.88;;;-5.50;100.00
75650;BME280;64245;51.282;22.494;2024-01-11T07:34:26;99396.88;;;-5.49;100.00
75650;BME280;64245;51.282;22.494;2024-01-11T07:36:52;99399.53;;;-5.51;100.00
75650;BME280;64245;51.282;22.494;2024-01-11T07:39:19;99389.34;;;-5.62;100.00
75650;BME280;64245;51.282;22.494;2024-01-11T07:41:45;99396.88;;;-5.49;100.00
75650;BME280;64245;51.282;22.494;2024-01-11T07:44:11;99405.00;;;-5.59;100.00
75650;BME280;64245;51.282;22.494;2024-01-11T07:46:36;99397.06;;;-5.57;100.00
75650;BME280;64245;51.282;22.494;2024-01-11T07:49:03;99392.44;;;-5.47;100.00
75650;BME280;64245;51.282;22.494;2024-01-11T07:51:29;99400.63;;;-5.58;100.00
75650;BME280;64245;51.282;22.494;2024-01-11T07:53:55;99390.94;;;-5.58;100.00
75650;BME280;64245;51.282;22.494;2024-01-11T07:56:20;99407.31;;;-5.48;100.00
75650;BME280;64245;51.282;22.494;2024-01-11T07:58:46;99392.59;;;-5.53;100.00
75650;BME280;64245;51.282;22.494;2024-01-11T08:01:11;99400.19;;;-5.43;100.00
75650;BME280;64245;51.282;22.494;2024-01-11T08:03:38;99402.44;;;-5.31;100.00
75650;BME280;64245;51.282;22.494;2024-01-11T08:06:04;99402.38;;;-5.28;100.00
75650;BME280;64245;51.282;22.494;2024-01-11T08:08:34;99391.91;;;-5.29;100.00
75650;BME280;64245;51.282;22.494;2024-01-11T08:10:59;99394.09;;;-5.14;100.00
75650;BME280;64245;51.282;22.494;2024-01-11T08:13:25;99395.84;;;-5.14;100.00
75650;BME280;64245;51.282;22.494;2024-01-11T08:15:51;99391.53;;;-5.17;100.00
75650;BME280;64245;51.282;22.494;2024-01-11T08:18:19;99404.72;;;-5.18;100.00
75650;BME280;64245;51.282;22.494;2024-01-11T08:20:44;99406.63;;;-5.24;100.00
75650;BME280;64245;51.282;22.494;2024-01-11T08:23:10;99411.09;;;-5.27;100.00
75650;BME280;64245;51.282;22.494;2024-01-11T08:25:36;99410.13;;;-5.23;100.00
75650;BME280;64245;51.282;22.494;2024-01-11T08:28:03;99408.13;;;-5.15;100.00
75650;BME280;64245;51.282;22.494;2024-01-11T08:30:29;99409.78;;;-5.12;100.00
75650;BME280;64245;51.282;22.494;2024-01-11T08:32:54;99414.19;;;-5.13;100.00
75650;BME280;64245;51.282;22.494;2024-01-11T08:35:21;99410.03;;;-5.20;100.00
75650;BME280;64245;51.282;22.494;2024-01-11T08:37:47;99411.38;;;-5.07;100.00
75650;BME280;64245;51.282;22.494;2024-01-11T08:40:13;99407.91;;;-5.07;100.00
75650;BME280;64245;51.282;22.494;2024-01-11T08:42:38;99411.97;;;-4.97;100.00
75650;BME280;64245;51.282;22.494;2024-01-11T08:45:05;99412.34;;;-5.09;100.00
75650;BME280;64245;51.282;22.494;2024-01-11T08:47:34;99404.84;;;-5.22;100.00
75650;BME280;64245;51.282;22.494;2024-01-11T08:50:00;99399.03;;;-5.03;100.00
75650;BME280;64245;51.282;22.494;2024-01-11T08:52:26;99406.88;;;-5.02;100.00
75650;BME280;64245;51.282;22.494;2024-01-11T08:54:51;99420.16;;;-5.08;100.00
75650;BME280;64245;51.282;22.494;2024-01-11T08:57:17;99398.25;;;-5.07;100.00
75650;BME280;64245;51.282;22.494;2024-01-11T08:59:43;99423.84;;;-4.84;100.00
75650;BME280;64245;51.282;22.494;2024-01-11T09:02:10;99425.28;;;-4.74;100.00
75650;BME280;64245;51.282;22.494;2024-01-11T09:04:36;99436.69;;;-4.75;100.00
75650;BME280;64245;51.282;22.494;2024-01-11T09:07:02;99433.25;;;-4.77;100.00
75650;BME280;64245;51.282;22.494;2024-01-11T09:09:28;99414.41;;;-4.91;100.00
75650;BME280;64245;51.282;22.494;2024-01-11T09:11:53;99424.66;;;-4.82;100.00
75650;BME280;64245;51.282;22.494;2024-01-11T09:14:19;99428.91;;;-4.78;100.00
75650;BME280;64245;51.282;22.494;2024-01-11T09:16:45;99422.81;;;-4.80;100.00
75650;BME280;64245;51.282;22.494;2024-01-11T09:19:12;99421.88;;;-4.77;100.00
75650;BME280;64245;51.282;22.494;2024-01-11T09:21:37;99420.97;;;-4.76;100.00
75650;BME280;64245;51.282;22.494;2024-01-11T09:24:03;99423.34;;;-4.67;100.00
75650;BME280;64245;51.282;22.494;2024-01-11T09:26:30;99412.28;;;-4.78;100.00
75650;BME280;64245;51.282;22.494;2024-01-11T09:28:55;99425.31;;;-4.75;100.00
75650;BME280;64245;51.282;22.494;2024-01-11T09:31:21;99410.88;;;-4.90;100.00
75650;BME280;64245;51.282;22.494;2024-01-11T09:33:46;99421.88;;;-4.77;100.00
75650;BME280;64245;51.282;22.494;2024-01-11T09:36:13;99416.72;;;-4.80;100.00
75650;BME280;64245;51.282;22.494;2024-01-11T09:38:39;99416.44;;;-4.71;100.00
75650;BME280;64245;51.282;22.494;2024-01-11T09:41:08;99407.94;;;-4.79;100.00
75650;BME280;64245;51.282;22.494;2024-01-11T09:43:35;99400.38;;;-4.90;100.00
75650;BME280;64245;51.282;22.494;2024-01-11T09:46:05;99403.00;;;-4.90;100.00
75650;BME280;64245;51.282;22.494;2024-01-11T09:48:32;99410.13;;;-4.94;100.00
75650;BME280;64245;51.282;22.494;2024-01-11T09:51:01;99402.06;;;-4.88;100.00
75650;BME280;64245;51.282;22.494;2024-01-11T09:53:29;99401.69;;;-4.75;100.00
75650;BME280;64245;51.282;22.494;2024-01-11T09:55:58;99402.66;;;-4.79;100.00
75650;BME280;64245;51.282;22.494;2024-01-11T09:58:23;99394.53;;;-4.70;100.00
75650;BME280;64245;51.282;22.494;2024-01-11T10:00:54;99387.38;;;-4.65;100.00
75650;BME280;64245;51.282;22.494;2024-01-11T10:03:22;99385.56;;;-4.63;100.00
75650;BME280;64245;51.282;22.494;2024-01-11T10:05:49;99379.28;;;-4.59;100.00
75650;BME280;64245;51.282;22.494;2024-01-11T10:08:15;99383.28;;;-4.47;100.00
75650;BME280;64245;51.282;22.494;2024-01-11T10:10:41;99370.44;;;-4.57;100.00
75650;BME280;64245;51.282;22.494;2024-01-11T10:13:06;99370.38;;;-4.55;100.00
75650;BME280;64245;51.282;22.494;2024-01-11T10:15:32;99348.66;;;-4.60;100.00
75650;BME280;64245;51.282;22.494;2024-01-11T10:17:58;99351.50;;;-4.66;100.00
75650;BME280;64245;51.282;22.494;2024-01-11T10:20:23;99352.84;;;-4.55;100.00
75650;BME280;64245;51.282;22.494;2024-01-11T10:22:49;99352.66;;;-4.48;100.00
75650;BME280;64245;51.282;22.494;2024-01-11T10:25:16;99343.16;;;-4.53;100.00
75650;BME280;64245;51.282;22.494;2024-01-11T10:27:44;99341.94;;;-4.42;100.00
75650;BME280;64245;51.282;22.494;2024-01-11T10:30:12;99339.91;;;-4.34;100.00
75650;BME280;64245;51.282;22.494;2024-01-11T10:32:43;99326.06;;;-4.39;100.00
75650;BME280;64245;51.282;22.494;2024-01-11T10:35:09;99313.88;;;-4.42;100.00
75650;BME280;64245;51.282;22.494;2024-01-11T10:37:36;99308.53;;;-4.39;100.00
75650;BME280;64245;51.282;22.494;2024-01-11T10:40:05;99322.81;;;-4.21;100.00
75650;BME280;64245;51.282;22.494;2024-01-11T10:42:36;99322.66;;;-4.17;100.00
75650;BME280;64245;51.282;22.494;2024-01-11T10:45:11;99310.47;;;-4.44;100.00
75650;BME280;64245;51.282;22.494;2024-01-11T10:47:47;99307.81;;;-4.18;100.00
75650;BME280;64245;51.282;22.494;2024-01-11T10:50:14;99302.34;;;-4.11;100.00
75650;BME280;64245;51.282;22.494;2024-01-11T10:52:46;99299.16;;;-4.21;100.00
75650;BME280;64245;51.282;22.494;2024-01-11T10:55:15;99302.69;;;-4.22;100.00
75650;BME280;64245;51.282;22.494;2024-01-11T10:57:41;99304.00;;;-4.09;100.00
75650;BME280;64245;51.282;22.494;2024-01-11T11:00:07;99296.22;;;-4.12;100.00
75650;BME280;64245;51.282;22.494;2024-01-11T11:02:37;99301.91;;;-4.24;100.00
75650;BME280;64245;51.282;22.494;2024-01-11T11:05:05;99285.97;;;-4.20;100.00
75650;BME280;64245;51.282;22.494;2024-01-11T11:07:35;99284.91;;;-4.14;100.00
75650;BME280;64245;51.282;22.494;2024-01-11T11:10:02;99279.88;;;-4.22;100.00
75650;BME280;64245;51.282;22.494;2024-01-11T11:12:32;99276.84;;;-4.09;100.00
75650;BME280;64245;51.282;22.494;2024-01-11T11:14:59;99275.94;;;-4.08;100.00
75650;BME280;64245;51.282;22.494;2024-01-11T11:17:25;99271.66;;;-4.11;100.00
75650;BME280;64245;51.282;22.494;2024-01-11T11:19:53;99260.22;;;-4.10;100.00
75650;BME280;64245;51.282;22.494;2024-01-11T11:22:19;99269.09;;;-3.89;100.00
75650;BME280;64245;51.282;22.494;2024-01-11T11:24:46;99258.69;;;-3.92;100.00
75650;BME280;64245;51.282;22.494;2024-01-11T11:27:16;99262.03;;;-4.12;100.00
75650;BME280;64245;51.282;22.494;2024-01-11T11:29:47;99257.63;;;-4.11;100.00
75650;BME280;64245;51.282;22.494;2024-01-11T11:32:14;99255.75;;;-4.08;100.00
75650;BME280;64245;51.282;22.494;2024-01-11T11:34:43;99257.34;;;-4.04;100.00
75650;BME280;64245;51.282;22.494;2024-01-11T11:37:10;99263.84;;;-4.14;100.00
75650;BME280;64245;51.282;22.494;2024-01-11T11:39:36;99230.84;;;-4.23;100.00
75650;BME280;64245;51.282;22.494;2024-01-11T11:42:03;99256.69;;;-4.09;100.00
75650;BME280;64245;51.282;22.494;2024-01-11T11:44:30;99249.75;;;-4.11;100.00
75650;BME280;64245;51.282;22.494;2024-01-11T11:47:22;99249.09;;;-3.93;100.00
75650;BME280;64245;51.282;22.494;2024-01-11T11:50:08;99248.22;;;-3.94;100.00
75650;BME280;64245;51.282;22.494;2024-01-11T11:52:39;99239.47;;;-3.94;100.00
75650;BME280;64245;51.282;22.494;2024-01-11T11:55:08;99236.78;;;-3.93;100.00
75650;BME280;64245;51.282;22.494;2024-01-11T11:57:35;99238.09;;;-4.04;100.00
75650;BME280;64245;51.282;22.494;2024-01-11T12:00:02;99237.47;;;-4.11;100.00
75650;BME280;64245;51.282;22.494;2024-01-11T12:02:31;99234.72;;;-4.08;100.00
75650;BME280;64245;51.282;22.494;2024-01-11T12:04:57;99228.31;;;-4.01;100.00
75650;BME280;64245;51.282;22.494;2024-01-11T12:07:23;99229.03;;;-4.21;100.00
75650;BME280;64245;51.282;22.494;2024-01-11T12:09:53;99216.16;;;-4.28;100.00
75650;BME280;64245;51.282;22.494;2024-01-11T12:12:19;99221.19;;;-4.22;100.00
75650;BME280;64245;51.282;22.494;2024-01-11T12:14:47;99221.31;;;-4.25;100.00
75650;BME280;64245;51.282;22.494;2024-01-11T12:17:13;99197.94;;;-4.33;100.00
75650;BME280;64245;51.282;22.494;2024-01-11T12:19:39;99210.41;;;-4.14;100.00
75650;BME280;64245;51.282;22.494;2024-01-11T12:22:05;99212.47;;;-3.99;100.00
75650;BME280;64245;51.282;22.494;2024-01-11T12:24:31;99207.78;;;-4.14;100.00
75650;BME280;64245;51.282;22.494;2024-01-11T12:26:59;99196.25;;;-4.10;100.00
75650;BME280;64245;51.282;22.494;2024-01-11T12:29:25;99195.50;;;-4.14;100.00
75650;BME280;64245;51.282;22.494;2024-01-11T12:31:53;99196.50;;;-4.18;100.00
75650;BME280;64245;51.282;22.494;2024-01-11T12:34:19;99191.16;;;-4.15;100.00
75650;BME280;64245;51.282;22.494;2024-01-11T12:36:45;99200.59;;;-4.09;100.00
75650;BME280;64245;51.282;22.494;2024-01-11T12:39:11;99193.72;;;-4.13;100.00
75650;BME280;64245;51.282;22.494;2024-01-11T12:41:39;99195.59;;;-4.17;100.00